createdAt,value
2018-06-17T00:01:54.410Z,13.69
2018-06-17T00:04:23.483Z,13.63
2018-06-17T00:06:56.098Z,13.57
2018-06-17T00:09:25.160Z,13.58
2018-06-17T00:11:54.217Z,13.55
2018-06-17T00:14:23.284Z,13.60
2018-06-17T00:16:59.862Z,13.55
2018-06-17T00:19:28.926Z,13.52
2018-06-17T00:21:57.997Z,13.62
2018-06-17T00:24:27.060Z,13.51
2018-06-17T00:26:57.068Z,13.53
2018-06-17T00:29:26.144Z,13.47
2018-06-17T00:31:55.205Z,13.37
2018-06-17T00:34:25.229Z,13.54
2018-06-17T00:36:56.241Z,13.36
2018-06-17T00:39:25.298Z,13.23
2018-06-17T00:41:54.359Z,13.22
2018-06-17T00:44:24.182Z,13.22
2018-06-17T00:46:56.417Z,13.32
2018-06-17T00:49:25.517Z,13.48
2018-06-17T00:52:07.126Z,13.62
2018-06-17T00:54:36.265Z,13.77
2018-06-17T00:59:48.097Z,14.09
2018-06-17T01:02:17.536Z,14.25
2018-06-17T01:04:47.540Z,14.08
2018-06-17T01:07:16.618Z,14.10
2018-06-17T01:09:45.692Z,14.07
2018-06-17T01:12:16.788Z,14.16
2018-06-17T01:14:50.489Z,14.05
2018-06-17T01:17:20.685Z,13.83
2018-06-17T01:22:25.490Z,13.66
2018-06-17T01:25:01.979Z,13.53
2018-06-17T01:27:31.070Z,13.49
2018-06-17T01:30:02.045Z,13.47
2018-06-17T01:32:31.099Z,13.49
2018-06-17T01:35:02.078Z,13.56
2018-06-17T01:37:31.142Z,13.52
2018-06-17T01:40:03.969Z,13.41
2018-06-17T01:42:33.022Z,13.40
2018-06-17T01:47:37.784Z,13.52
2018-06-17T01:50:07.783Z,13.49
2018-06-17T01:52:36.846Z,13.37
2018-06-17T01:55:09.829Z,13.33
2018-06-17T01:57:38.886Z,13.30
2018-06-17T02:00:07.979Z,12.92
2018-06-17T02:02:37.051Z,12.76
2018-06-17T02:16:44.225Z,12.28
2018-06-17T02:19:13.319Z,12.13
2018-06-17T02:21:42.408Z,12.11
2018-06-17T02:24:26.418Z,12.22
2018-06-17T02:26:55.490Z,12.18
2018-06-17T02:29:24.561Z,12.12
2018-06-17T02:31:53.627Z,12.09
2018-06-17T02:36:58.381Z,12.34
2018-06-17T02:42:03.144Z,13.05
2018-06-17T02:44:32.210Z,13.27
2018-06-17T02:50:02.109Z,13.21
2018-06-17T02:55:10.497Z,13.48
2018-06-17T02:57:43.656Z,13.60
2018-06-17T03:00:23.535Z,13.66
2018-06-17T03:02:52.602Z,13.76
2018-06-17T03:05:23.644Z,13.86
2018-06-17T03:07:52.697Z,13.86
2018-06-17T03:10:23.717Z,13.95
2018-06-17T03:12:52.776Z,14.03
2018-06-17T03:15:27.718Z,14.15
2018-06-17T03:17:56.786Z,14.25
2018-06-17T03:20:31.601Z,14.31
2018-06-17T03:23:00.669Z,14.42
2018-06-17T03:31:41.345Z,14.76
2018-06-17T03:34:16.078Z,14.77
2018-06-17T03:36:45.133Z,14.80
2018-06-17T03:39:14.195Z,14.86
2018-06-17T03:44:20.229Z,14.87
2018-06-17T03:49:24.997Z,14.96
2018-06-17T03:52:04.617Z,14.96
2018-06-17T03:57:09.394Z,15.10
2018-06-17T03:59:38.449Z,15.18
2018-06-17T04:02:08.421Z,15.06
2018-06-17T04:07:13.268Z,15.10
2018-06-17T04:12:31.022Z,15.41
2018-06-17T04:17:37.076Z,15.49
2018-06-17T04:20:06.141Z,15.65
2018-06-17T04:22:37.134Z,15.68
2018-06-17T04:25:06.223Z,15.77
2018-06-17T04:27:39.573Z,15.80
2018-06-17T04:30:08.738Z,15.81
2018-06-17T04:32:46.939Z,15.90
2018-06-17T04:35:15.990Z,15.99
2018-06-17T04:37:45.070Z,16.01
2018-06-17T04:40:14.202Z,15.98
2018-06-17T04:45:20.302Z,16.20
2018-06-17T04:47:49.418Z,16.23
2018-06-17T04:50:19.669Z,16.22
2018-06-17T04:52:48.728Z,16.21
2018-06-17T04:55:18.812Z,16.29
2018-06-17T05:00:32.081Z,16.41
2018-06-17T05:03:02.194Z,16.43
2018-06-17T05:08:10.234Z,16.80
2018-06-17T05:10:49.351Z,16.87
2018-06-17T05:13:20.097Z,16.99
2018-06-17T05:18:29.376Z,17.13
2018-06-17T05:20:58.419Z,16.93
2018-06-17T05:23:31.970Z,16.77
2018-06-17T05:26:01.351Z,16.80
2018-06-17T05:28:35.568Z,16.82
2018-06-17T05:31:04.823Z,16.78
2018-06-17T05:33:33.920Z,16.81
2018-06-17T05:36:03.983Z,16.88
2018-06-17T05:38:34.001Z,17.01
2018-06-17T05:41:03.966Z,17.00
2018-06-17T05:43:37.528Z,16.93
2018-06-17T05:46:06.593Z,16.85
2018-06-17T05:48:49.037Z,16.80
2018-06-17T05:51:18.700Z,16.86
2018-06-17T05:53:47.888Z,16.87
2018-06-17T05:56:16.997Z,16.99
2018-06-17T05:58:47.005Z,16.97
2018-06-17T06:01:16.387Z,17.19
2018-06-17T06:06:22.115Z,17.38
2018-06-17T06:08:52.164Z,17.51
2018-06-17T06:11:21.917Z,17.63
2018-06-17T06:19:02.426Z,18.25
2018-06-17T06:21:31.563Z,18.25
2018-06-17T06:24:05.447Z,18.34
2018-06-17T06:26:34.641Z,18.50
2018-06-17T06:31:44.368Z,19.06
2018-06-17T06:34:13.428Z,19.50
2018-06-17T06:36:42.820Z,19.60
2018-06-17T06:39:11.865Z,19.39
2018-06-17T06:41:40.927Z,19.27
2018-06-17T06:44:10.052Z,19.41
2018-06-17T06:46:39.102Z,19.75
2018-06-17T06:49:09.065Z,19.95
2018-06-17T06:51:38.125Z,20.19
2018-06-17T06:54:07.181Z,20.51
2018-06-17T06:56:37.395Z,20.58
2018-06-17T06:59:06.470Z,20.68
2018-06-17T07:13:52.212Z,20.70
2018-06-17T07:16:39.591Z,21.23
2018-06-17T07:19:08.613Z,21.48
2018-06-17T07:21:37.680Z,21.71
2018-06-17T07:24:06.945Z,21.47
2018-06-17T07:26:53.964Z,21.55
2018-06-17T07:29:39.022Z,21.82
2018-06-17T07:32:08.088Z,21.58
2018-06-17T07:34:37.212Z,21.45
2018-06-17T07:37:06.346Z,21.48
2018-06-17T07:39:35.414Z,21.65
2018-06-17T07:42:04.482Z,21.87
2018-06-17T07:44:33.546Z,21.85
2018-06-17T07:47:02.961Z,22.02
2018-06-17T07:55:00.221Z,21.97
2018-06-17T07:57:29.275Z,21.94
2018-06-17T07:59:59.294Z,22.51
2018-06-17T08:02:28.402Z,22.77
2018-06-17T08:04:57.442Z,22.95
2018-06-17T08:07:26.509Z,23.13
2018-06-17T08:09:56.515Z,23.62
2018-06-17T08:12:25.611Z,23.82
2018-06-17T08:14:54.851Z,23.14
2018-06-17T08:17:24.804Z,22.90
2018-06-17T08:22:30.109Z,23.45
2018-06-17T08:25:00.130Z,23.16
2018-06-17T08:27:29.190Z,22.96
2018-06-17T08:29:58.759Z,22.77
2018-06-17T08:32:27.914Z,22.74
2018-06-17T08:34:56.973Z,23.39
2018-06-17T08:37:26.061Z,24.29
2018-06-17T08:42:30.902Z,25.16
2018-06-17T08:45:00.026Z,25.08
2018-06-17T08:47:29.132Z,24.63
2018-06-17T08:49:58.198Z,24.86
2018-06-17T08:52:27.266Z,25.05
2018-06-17T08:57:32.179Z,25.36
2018-06-17T09:00:01.306Z,25.01
2018-06-17T09:02:30.441Z,24.45
2018-06-17T09:04:59.507Z,24.60
2018-06-17T09:07:28.568Z,24.73
2018-06-17T09:09:57.651Z,24.41
2018-06-17T09:12:27.005Z,24.20
2018-06-17T09:15:18.842Z,24.55
2018-06-17T09:18:05.450Z,23.98
2018-06-17T09:20:35.428Z,23.24
2018-06-17T09:26:00.352Z,23.03
2018-06-17T09:28:29.421Z,23.28
2018-06-17T09:31:16.273Z,23.92
2018-06-17T09:33:53.543Z,24.14
2018-06-17T09:36:23.678Z,24.23
2018-06-17T09:38:58.285Z,23.88
2018-06-17T09:41:27.360Z,23.27
2018-06-17T09:44:15.796Z,23.77
2018-06-17T09:46:46.821Z,24.13
2018-06-17T09:49:17.050Z,23.61
2018-06-17T09:54:22.895Z,23.12
2018-06-17T09:56:55.695Z,22.63
2018-06-17T09:59:24.779Z,22.08
2018-06-17T10:01:59.266Z,21.96
2018-06-17T10:04:28.334Z,21.65
2018-06-17T10:07:09.360Z,21.38
2018-06-17T10:12:16.385Z,21.59
2018-06-17T10:15:04.940Z,21.74
2018-06-17T10:17:34.011Z,21.52
2018-06-17T10:20:16.037Z,21.31
2018-06-17T10:25:22.762Z,21.46
2018-06-17T10:27:51.812Z,21.70
2018-06-17T10:30:21.865Z,21.68
2018-06-17T10:32:50.937Z,21.94
2018-06-17T10:35:21.216Z,21.89
2018-06-17T10:37:50.291Z,21.81
2018-06-17T10:40:20.761Z,22.04
2018-06-17T10:42:49.821Z,22.08
2018-06-17T10:45:20.150Z,21.63
2018-06-17T10:47:49.189Z,21.57
2018-06-17T10:50:19.445Z,21.21
2018-06-17T10:52:48.503Z,21.45
2018-06-17T10:55:18.497Z,21.44
2018-06-17T10:57:47.567Z,21.59
2018-06-17T11:00:16.647Z,21.97
2018-06-17T11:02:45.712Z,22.08
2018-06-17T11:05:14.931Z,22.32
2018-06-17T11:07:43.995Z,22.62
2018-06-17T11:12:48.985Z,23.17
2018-06-17T11:15:18.173Z,23.05
2018-06-17T11:17:47.265Z,23.96
2018-06-17T11:22:52.081Z,24.51
2018-06-17T11:25:21.710Z,24.57
2018-06-17T11:27:50.769Z,24.38
2018-06-17T11:32:55.598Z,25.08
2018-06-17T11:35:24.781Z,24.79
2018-06-17T11:37:53.834Z,24.64
2018-06-17T11:40:24.182Z,26.10
2018-06-17T11:42:53.217Z,26.99
2018-06-17T11:45:22.474Z,27.00
2018-06-17T11:47:51.589Z,28.07
2018-06-17T11:52:57.521Z,30.21
2018-06-17T11:55:26.570Z,30.11
2018-06-17T11:57:55.626Z,30.18
2018-06-17T12:00:32.879Z,29.64
2018-06-17T12:03:01.957Z,28.65
2018-06-17T12:05:31.031Z,30.12
2018-06-17T12:08:00.123Z,30.74
2018-06-17T12:10:44.738Z,31.01
2018-06-17T12:13:13.932Z,31.21
2018-06-17T12:15:43.370Z,33.20
2018-06-17T12:18:12.934Z,34.77
2018-06-17T12:20:43.877Z,35.83
2018-06-17T12:23:12.934Z,36.00
2018-06-17T12:25:42.168Z,37.96
2018-06-17T12:28:11.230Z,37.96
2018-06-17T12:30:40.300Z,37.31
2018-06-17T12:33:09.379Z,36.31
2018-06-17T12:35:38.465Z,36.45
2018-06-17T12:38:07.547Z,35.65
2018-06-17T12:40:36.625Z,33.49
2018-06-17T12:43:05.711Z,32.98
2018-06-17T12:45:34.761Z,32.20
2018-06-17T12:48:03.810Z,34.81
2018-06-17T12:50:32.951Z,34.15
2018-06-17T12:53:02.959Z,33.46
2018-06-17T12:55:32.013Z,31.52
2018-06-17T12:58:02.060Z,30.94
2018-06-17T13:00:31.112Z,30.96
2018-06-17T13:03:00.260Z,30.20
2018-06-17T13:05:29.331Z,30.33
2018-06-17T13:07:58.383Z,29.02
2018-06-17T13:10:27.476Z,27.96
2018-06-17T13:12:56.695Z,27.39
2018-06-17T13:15:25.760Z,29.17
2018-06-17T13:17:56.800Z,30.97
2018-06-17T13:20:25.870Z,31.98
2018-06-17T13:25:30.958Z,34.24
2018-06-17T13:28:00.303Z,32.92
2018-06-17T13:30:29.346Z,32.05
2018-06-17T13:32:58.406Z,33.94
2018-06-17T13:35:27.474Z,36.26
2018-06-17T13:37:57.813Z,35.89
2018-06-17T13:40:30.182Z,31.00
2018-06-17T13:42:59.275Z,30.35
2018-06-17T13:45:29.277Z,29.37
2018-06-17T13:47:58.340Z,29.76
2018-06-17T13:50:27.634Z,29.48
2018-06-17T13:52:56.711Z,29.41
2018-06-17T13:55:29.668Z,29.27
2018-06-17T13:57:58.830Z,32.00
2018-06-17T14:00:31.180Z,36.64
2018-06-17T14:03:00.265Z,38.82
2018-06-17T14:05:29.345Z,35.14
2018-06-17T14:07:58.389Z,32.13
2018-06-17T14:10:32.251Z,31.92
2018-06-17T14:13:01.412Z,30.52
2018-06-17T14:15:30.483Z,29.38
2018-06-17T14:17:59.545Z,28.71
2018-06-17T14:20:28.610Z,29.33
2018-06-17T14:22:57.748Z,30.17
2018-06-17T14:25:26.785Z,30.54
2018-06-17T14:30:32.261Z,29.81
2018-06-17T14:33:02.226Z,30.33
2018-06-17T14:35:31.423Z,29.96
2018-06-17T14:40:36.310Z,29.00
2018-06-17T14:43:05.385Z,28.86
2018-06-17T14:54:21.874Z,29.17
2018-06-17T14:56:51.869Z,28.30
2018-06-17T14:59:20.926Z,27.82
2018-06-17T15:01:51.202Z,28.14
2018-06-17T15:06:56.066Z,26.95
2018-06-17T15:09:25.249Z,26.84
2018-06-17T15:11:54.223Z,27.70
2018-06-17T15:14:23.391Z,30.98
2018-06-17T15:16:52.498Z,31.27
2018-06-17T15:21:57.389Z,32.22
2018-06-17T15:24:26.697Z,34.23
2018-06-17T15:26:55.749Z,34.21
2018-06-17T15:32:00.559Z,36.68
2018-06-17T15:40:12.575Z,39.39
2018-06-17T15:42:41.640Z,35.83
2018-06-17T15:45:10.700Z,35.49
2018-06-17T15:50:15.865Z,38.48
2018-06-17T15:52:44.908Z,38.60
2018-06-17T15:55:14.849Z,39.36
2018-06-17T15:57:44.027Z,40.56
2018-06-17T16:02:50.559Z,38.30
2018-06-17T16:05:19.734Z,34.38
2018-06-17T16:07:50.266Z,33.71
2018-06-17T16:10:19.321Z,34.06
2018-06-17T16:12:49.935Z,35.76
2018-06-17T16:21:08.747Z,35.31
2018-06-17T16:23:38.759Z,31.14
2018-06-17T16:26:08.017Z,28.12
2018-06-17T16:28:37.073Z,28.18
2018-06-17T16:31:07.041Z,28.41
2018-06-17T16:33:36.130Z,27.48
2018-06-17T16:41:19.338Z,24.00
2018-06-17T16:46:24.221Z,21.65
2018-06-17T16:48:56.668Z,21.31
2018-06-17T16:51:25.995Z,20.94
2018-06-17T16:57:02.189Z,19.90
2018-06-17T17:02:27.082Z,18.67
2018-06-17T17:04:56.138Z,18.52
2018-06-17T17:07:25.449Z,18.27
2018-06-17T17:09:55.748Z,18.38
2018-06-17T17:12:24.790Z,18.38
2018-06-17T17:14:58.574Z,18.26
2018-06-17T17:17:27.626Z,18.27
2018-06-17T17:19:56.995Z,18.12
2018-06-17T17:22:26.174Z,18.21
2018-06-17T17:24:55.217Z,18.19
2018-06-17T17:30:00.070Z,18.14
2018-06-17T17:40:52.698Z,18.46
2018-06-17T17:45:57.703Z,18.86
2018-06-17T17:48:27.777Z,18.91
2018-06-17T17:53:35.278Z,18.50
2018-06-17T17:56:06.932Z,18.29
2018-06-17T17:58:39.184Z,18.36
2018-06-17T18:01:08.386Z,18.11
2018-06-17T18:03:37.447Z,17.95
2018-06-17T18:06:06.489Z,17.83
2018-06-17T18:08:36.067Z,17.77
2018-06-17T18:11:06.150Z,17.60
2018-06-17T18:13:37.705Z,17.04
2018-06-17T18:16:09.865Z,16.64
2018-06-17T18:18:38.907Z,16.50
2018-06-17T18:23:43.788Z,16.23
2018-06-17T18:26:39.197Z,16.09
2018-06-17T18:32:11.634Z,15.97
2018-06-17T18:37:45.213Z,15.95
2018-06-17T18:40:19.258Z,15.88
2018-06-17T18:42:48.894Z,15.89
2018-06-17T18:45:25.131Z,15.90
2018-06-17T18:48:00.663Z,15.90
2018-06-17T18:50:34.624Z,15.93
2018-06-17T18:53:06.602Z,15.92
2018-06-17T18:55:36.579Z,15.84
2018-06-17T18:58:28.657Z,15.88
2018-06-17T19:01:01.742Z,15.94
2018-06-17T19:08:45.784Z,16.15
2018-06-17T19:13:52.722Z,16.05
2018-06-17T19:19:13.550Z,16.15
2018-06-17T19:21:47.346Z,16.23
2018-06-17T19:24:20.207Z,16.24
2018-06-17T19:26:52.165Z,16.31
2018-06-17T19:29:23.742Z,16.35
2018-06-17T19:31:57.138Z,16.35
2018-06-17T19:37:03.976Z,16.30
2018-06-17T19:39:36.364Z,16.34
2018-06-17T19:44:43.485Z,16.24
2018-06-17T19:47:23.080Z,16.16
2018-06-17T19:49:55.580Z,16.20
2018-06-17T20:01:30.393Z,16.23
2018-06-17T20:04:00.374Z,16.16
2018-06-17T20:09:36.400Z,16.05
2018-06-17T20:12:07.286Z,16.10
2018-06-17T20:14:39.708Z,16.05
2018-06-17T20:17:08.769Z,16.03
2018-06-17T20:19:38.750Z,16.06
2018-06-17T20:22:07.830Z,16.09
2018-06-17T20:24:39.797Z,16.08
2018-06-17T20:27:25.645Z,16.08
2018-06-17T20:30:12.751Z,16.10
2018-06-17T20:32:49.184Z,16.12
2018-06-17T20:47:10.112Z,16.29
2018-06-17T20:49:40.857Z,16.17
2018-06-17T20:52:11.930Z,16.18
2018-06-17T20:54:54.521Z,16.08
2018-06-17T20:57:26.924Z,16.04
2018-06-17T21:00:01.207Z,16.02
2018-06-17T21:02:40.617Z,16.00
2018-06-17T21:05:12.967Z,16.00
2018-06-17T21:07:47.801Z,15.88
2018-06-17T21:10:19.172Z,15.88
2018-06-17T21:15:27.670Z,15.92
2018-06-17T21:18:01.103Z,15.91
2018-06-17T21:29:20.432Z,15.82
2018-06-17T21:34:38.034Z,15.70
2018-06-17T21:37:11.181Z,15.64
2018-06-17T21:39:48.239Z,15.59
2018-06-17T21:42:20.957Z,15.64
2018-06-17T21:44:53.099Z,15.67
2018-06-17T21:47:26.373Z,15.62
2018-06-17T21:49:59.263Z,15.66
2018-06-17T21:52:32.655Z,15.64
2018-06-17T21:55:05.800Z,15.68
2018-06-17T21:57:40.808Z,15.62
2018-06-17T22:00:12.674Z,15.63
2018-06-17T22:05:21.009Z,15.77
2018-06-17T22:13:29.260Z,15.74
2018-06-17T22:19:10.355Z,15.72
2018-06-17T22:21:55.905Z,15.70
2018-06-17T22:24:28.843Z,15.63
2018-06-17T22:27:08.780Z,15.63
2018-06-17T22:32:17.966Z,15.69
2018-06-17T22:34:53.780Z,15.64
2018-06-17T22:37:26.890Z,15.63
2018-06-17T22:39:58.750Z,15.66
2018-06-17T22:42:30.451Z,15.63
2018-06-17T22:45:02.160Z,15.57
2018-06-17T22:50:13.410Z,15.72
2018-06-17T22:56:04.580Z,15.72
2018-06-17T23:10:58.711Z,15.76
2018-06-17T23:13:27.777Z,15.69
2018-06-17T23:15:56.843Z,15.68
2018-06-17T23:18:52.217Z,15.64
2018-06-17T23:21:58.282Z,15.70
2018-06-17T23:27:23.231Z,15.82
2018-06-17T23:29:52.307Z,15.73
2018-06-17T23:34:58.123Z,15.85
2018-06-17T23:37:42.275Z,15.83
2018-06-17T23:40:11.535Z,15.81
2018-06-17T23:42:48.275Z,15.93
2018-06-17T23:45:17.526Z,15.85
2018-06-17T23:56:59.164Z,15.98
